createdAt,value
2019-02-23T00:01:08.840Z,99.90
2019-02-23T00:03:38.138Z,99.90
2019-02-23T00:06:07.435Z,99.90
2019-02-23T00:08:37.074Z,99.90
2019-02-23T00:11:06.382Z,99.90
2019-02-23T00:13:36.099Z,99.90
2019-02-23T00:16:05.711Z,99.90
2019-02-23T00:18:35.494Z,99.90
2019-02-23T00:21:05.078Z,99.90
2019-02-23T00:23:34.777Z,99.90
2019-02-23T00:26:04.135Z,99.90
2019-02-23T00:28:33.424Z,99.90
2019-02-23T00:31:02.724Z,99.90
2019-02-23T00:33:32.310Z,99.90
2019-02-23T00:36:01.714Z,99.90
2019-02-23T00:38:31.720Z,99.90
2019-02-23T00:41:01.027Z,99.90
2019-02-23T00:43:30.338Z,99.90
2019-02-23T00:45:59.921Z,99.90
2019-02-23T00:48:29.271Z,99.90
2019-02-23T00:50:58.567Z,99.90
2019-02-23T00:53:28.731Z,99.90
2019-02-23T00:55:58.043Z,99.90
2019-02-23T00:58:27.689Z,99.90
2019-02-23T01:00:57.244Z,99.90
2019-02-23T01:03:26.581Z,99.90
2019-02-23T01:05:55.871Z,99.90
2019-02-23T01:08:25.164Z,99.90
2019-02-23T01:10:58.253Z,99.90
2019-02-23T01:13:25.855Z,99.90
2019-02-23T01:15:55.457Z,99.90
2019-02-23T01:18:25.068Z,99.90
2019-02-23T01:20:54.355Z,99.90
2019-02-23T01:23:23.924Z,99.90
2019-02-23T01:25:53.306Z,99.90
2019-02-23T01:28:22.592Z,99.90
2019-02-23T01:30:52.007Z,99.90
2019-02-23T01:33:21.573Z,99.90
2019-02-23T01:35:50.868Z,99.90
2019-02-23T01:38:20.236Z,99.90
2019-02-23T01:40:49.809Z,99.90
2019-02-23T01:43:19.127Z,99.90
2019-02-23T01:45:48.653Z,99.90
2019-02-23T01:48:18.261Z,99.90
2019-02-23T01:50:47.554Z,99.90
2019-02-23T01:53:17.433Z,99.90
2019-02-23T01:55:46.796Z,99.90
2019-02-23T01:58:16.330Z,99.90
2019-02-23T02:00:45.895Z,99.90
2019-02-23T02:03:15.195Z,99.90
2019-02-23T02:05:44.489Z,99.90
2019-02-23T02:08:13.889Z,99.90
2019-02-23T02:10:43.287Z,99.90
2019-02-23T02:13:12.630Z,99.90
2019-02-23T02:15:42.471Z,99.90
2019-02-23T02:18:11.806Z,99.90
2019-02-23T02:20:41.135Z,99.90
2019-02-23T02:23:10.491Z,99.90
2019-02-23T02:25:39.771Z,99.90
2019-02-23T02:28:09.414Z,99.90
2019-02-23T02:30:39.347Z,99.90
2019-02-23T02:33:08.922Z,99.90
2019-02-23T02:35:38.585Z,99.90
2019-02-23T02:38:07.907Z,99.90
2019-02-23T02:40:37.467Z,99.90
2019-02-23T02:43:06.849Z,99.90
2019-02-23T02:45:36.432Z,99.90
2019-02-23T02:48:05.982Z,99.90
2019-02-23T02:50:35.300Z,99.90
2019-02-23T02:53:04.877Z,99.90
2019-02-23T02:55:34.496Z,99.90
2019-02-23T02:58:04.109Z,99.90
2019-02-23T03:00:33.643Z,99.90
2019-02-23T03:03:02.936Z,99.90
2019-02-23T03:05:32.698Z,99.90
2019-02-23T03:08:01.978Z,99.90
2019-02-23T03:10:31.598Z,99.90
2019-02-23T03:13:01.000Z,99.90
2019-02-23T03:15:30.306Z,99.90
2019-02-23T03:17:59.891Z,99.90
2019-02-23T03:20:36.624Z,99.90
2019-02-23T03:23:00.751Z,99.90
2019-02-23T03:25:30.329Z,99.90
2019-02-23T03:27:59.670Z,99.90
2019-02-23T03:30:29.037Z,99.90
2019-02-23T03:32:58.348Z,99.90
2019-02-23T03:35:27.988Z,99.90
2019-02-23T03:37:57.291Z,99.90
2019-02-23T03:40:26.638Z,99.90
2019-02-23T03:42:55.963Z,99.90
2019-02-23T03:45:25.251Z,99.90
2019-02-23T03:47:54.806Z,99.90
2019-02-23T03:50:24.403Z,99.90
2019-02-23T03:52:54.292Z,99.90
2019-02-23T03:55:23.588Z,99.90
2019-02-23T03:57:52.913Z,99.90
2019-02-23T04:00:22.550Z,99.90
2019-02-23T04:02:52.134Z,99.90
2019-02-23T04:05:21.475Z,99.90
2019-02-23T04:07:50.772Z,99.90
2019-02-23T04:10:20.140Z,99.90
2019-02-23T04:12:49.528Z,99.90
2019-02-23T04:15:18.833Z,99.90
2019-02-23T04:17:48.488Z,99.90
2019-02-23T04:20:17.842Z,99.90
2019-02-23T04:22:47.411Z,99.90
2019-02-23T04:25:16.971Z,99.90
2019-02-23T04:27:46.319Z,99.90
2019-02-23T04:30:15.683Z,99.90
2019-02-23T04:32:45.254Z,99.90
2019-02-23T04:35:14.845Z,99.90
2019-02-23T04:37:44.497Z,99.90
2019-02-23T04:40:14.078Z,99.90
2019-02-23T04:42:43.646Z,99.90
2019-02-23T04:45:12.955Z,99.90
2019-02-23T04:47:42.240Z,99.90
2019-02-23T04:50:11.666Z,99.90
2019-02-23T04:52:41.013Z,99.90
2019-02-23T04:55:10.576Z,99.90
2019-02-23T04:57:39.928Z,99.90
2019-02-23T05:00:10.611Z,99.90
2019-02-23T05:02:39.897Z,99.90
2019-02-23T05:05:10.045Z,99.90
2019-02-23T05:07:39.332Z,99.90
2019-02-23T05:10:09.133Z,99.90
2019-02-23T05:12:38.771Z,99.90
2019-02-23T05:15:08.951Z,99.90
2019-02-23T05:17:38.279Z,99.90
2019-02-23T05:20:07.916Z,99.90
2019-02-23T05:22:37.530Z,99.90
2019-02-23T05:25:06.907Z,99.90
2019-02-23T05:27:36.485Z,99.90
2019-02-23T05:30:06.265Z,99.90
2019-02-23T05:32:36.019Z,99.90
2019-02-23T05:35:05.590Z,99.90
2019-02-23T05:37:34.900Z,99.90
2019-02-23T05:40:04.379Z,99.90
2019-02-23T05:42:33.928Z,99.90
2019-02-23T05:45:03.475Z,99.90
2019-02-23T05:47:33.064Z,99.90
2019-02-23T05:50:02.359Z,99.90
2019-02-23T05:52:31.667Z,99.90
2019-02-23T05:55:00.986Z,99.90
2019-02-23T05:57:30.359Z,99.90
2019-02-23T05:59:59.961Z,99.90
2019-02-23T06:02:29.523Z,99.90
2019-02-23T06:04:59.584Z,99.90
2019-02-23T06:07:28.943Z,99.90
2019-02-23T06:09:58.238Z,99.90
2019-02-23T06:12:27.577Z,99.90
2019-02-23T06:14:57.020Z,99.90
2019-02-23T06:17:26.571Z,99.90
2019-02-23T06:19:55.934Z,99.90
2019-02-23T06:22:25.275Z,99.90
2019-02-23T06:24:54.579Z,99.90
2019-02-23T06:27:24.239Z,99.90
2019-02-23T06:29:53.916Z,99.90
2019-02-23T06:32:23.552Z,99.90
2019-02-23T06:34:53.123Z,99.90
2019-02-23T06:37:23.125Z,99.90
2019-02-23T06:39:52.701Z,99.90
2019-02-23T06:42:22.255Z,99.90
2019-02-23T06:44:51.572Z,99.90
2019-02-23T06:47:21.012Z,99.90
2019-02-23T06:49:50.380Z,99.90
2019-02-23T06:52:19.773Z,99.90
2019-02-23T06:54:49.468Z,99.90
2019-02-23T06:57:18.740Z,99.90
2019-02-23T06:59:48.068Z,99.90
2019-02-23T07:02:17.404Z,99.90
2019-02-23T07:04:46.861Z,99.90
2019-02-23T07:07:16.266Z,99.90
2019-02-23T07:09:45.693Z,99.90
2019-02-23T07:12:15.103Z,99.90
2019-02-23T07:14:44.520Z,99.90
2019-02-23T07:17:15.239Z,99.90
2019-02-23T07:19:44.815Z,99.90
2019-02-23T07:22:15.739Z,99.90
2019-02-23T07:24:45.355Z,99.90
2019-02-23T07:27:14.630Z,99.90
2019-02-23T07:29:43.916Z,99.90
2019-02-23T07:32:13.266Z,99.90
2019-02-23T07:34:42.623Z,99.90
2019-02-23T07:37:11.919Z,99.90
2019-02-23T07:39:41.234Z,99.90
2019-02-23T07:42:10.535Z,99.90
2019-02-23T07:44:39.903Z,99.90
2019-02-23T07:47:09.215Z,99.90
2019-02-23T07:49:38.819Z,99.90
2019-02-23T07:52:08.099Z,99.90
2019-02-23T07:54:37.432Z,99.90
2019-02-23T07:57:06.797Z,99.90
2019-02-23T07:59:36.368Z,99.90
2019-02-23T08:02:05.939Z,99.90
2019-02-23T08:04:35.538Z,99.90
2019-02-23T08:07:04.907Z,99.90
2019-02-23T08:09:34.240Z,99.90
2019-02-23T08:12:03.524Z,99.90
2019-02-23T08:14:32.844Z,99.90
2019-02-23T08:17:02.182Z,99.90
2019-02-23T08:19:31.791Z,99.90
2019-02-23T08:22:01.367Z,99.90
2019-02-23T08:24:30.947Z,99.90
2019-02-23T08:27:00.244Z,99.90
2019-02-23T08:29:29.522Z,99.90
2019-02-23T08:31:58.840Z,99.90
2019-02-23T08:34:28.126Z,99.90
2019-02-23T08:36:57.412Z,99.90
2019-02-23T08:39:26.762Z,99.90
2019-02-23T08:41:56.290Z,99.90
2019-02-23T08:44:25.575Z,99.90
2019-02-23T08:46:54.889Z,99.90
2019-02-23T08:49:24.194Z,99.90
2019-02-23T08:51:53.535Z,99.90
2019-02-23T08:54:22.926Z,99.90
2019-02-23T08:56:52.528Z,99.90
2019-02-23T08:59:22.243Z,99.90
2019-02-23T09:01:51.863Z,99.90
2019-02-23T09:04:22.366Z,99.90
2019-02-23T09:06:51.676Z,99.90
2019-02-23T09:09:21.307Z,99.90
2019-02-23T09:11:50.695Z,99.90
2019-02-23T09:14:19.980Z,99.90
2019-02-23T09:16:49.352Z,99.90
2019-02-23T09:19:18.616Z,99.90
2019-02-23T09:21:47.959Z,99.90
2019-02-23T09:24:18.068Z,99.80
2019-02-23T09:26:47.391Z,99.90
2019-02-23T09:29:17.048Z,99.70
2019-02-23T09:31:46.529Z,99.90
2019-02-23T09:34:16.072Z,99.20
2019-02-23T09:36:46.309Z,98.90
2019-02-23T09:39:15.992Z,98.70
2019-02-23T09:41:45.449Z,98.70
2019-02-23T09:44:15.041Z,98.10
2019-02-23T09:46:44.654Z,97.90
2019-02-23T09:49:13.972Z,97.90
2019-02-23T09:51:43.582Z,97.80
2019-02-23T09:54:13.437Z,97.70
2019-02-23T09:56:42.731Z,97.20
2019-02-23T09:59:12.414Z,96.80
2019-02-23T10:01:47.845Z,96.90
2019-02-23T10:04:17.399Z,96.40
2019-02-23T10:06:46.991Z,96.50
2019-02-23T10:09:16.432Z,96.30
2019-02-23T10:11:45.784Z,96.20
2019-02-23T10:14:15.171Z,95.70
2019-02-23T10:16:44.540Z,95.60
2019-02-23T10:19:15.956Z,95.70
2019-02-23T10:21:45.831Z,94.80
2019-02-23T10:24:15.523Z,94.60
2019-02-23T10:26:44.799Z,94.10
2019-02-23T10:29:16.663Z,93.70
2019-02-23T10:31:46.005Z,93.30
2019-02-23T10:34:15.608Z,93.10
2019-02-23T10:36:45.172Z,92.60
2019-02-23T10:39:15.733Z,93.00
2019-02-23T10:41:46.740Z,93.00
2019-02-23T10:44:16.325Z,93.00
2019-02-23T10:46:46.392Z,92.10
2019-02-23T10:49:15.789Z,91.90
2019-02-23T10:51:45.271Z,91.20
2019-02-23T10:54:14.904Z,90.90
2019-02-23T10:56:44.547Z,91.70
2019-02-23T10:59:13.853Z,90.90
2019-02-23T11:01:46.831Z,90.80
2019-02-23T11:04:16.450Z,90.10
2019-02-23T11:06:46.082Z,90.10
2019-02-23T11:09:21.734Z,88.30
2019-02-23T11:11:51.025Z,87.80
2019-02-23T11:14:20.593Z,87.90
2019-02-23T11:16:50.219Z,88.10
2019-02-23T11:19:19.678Z,88.90
2019-02-23T11:21:49.891Z,86.90
2019-02-23T11:24:21.564Z,82.40
2019-02-23T11:26:51.158Z,83.20
2019-02-23T11:29:20.716Z,85.10
2019-02-23T11:31:50.039Z,84.10
2019-02-23T11:34:19.614Z,81.90
2019-02-23T11:36:49.248Z,80.40
2019-02-23T11:39:18.572Z,79.60
2019-02-23T11:41:47.851Z,78.00
2019-02-23T11:44:17.146Z,77.20
2019-02-23T11:46:59.897Z,76.30
2019-02-23T11:49:18.563Z,76.30
2019-02-23T11:51:48.435Z,75.70
2019-02-23T11:54:18.123Z,74.70
2019-02-23T11:56:47.695Z,73.60
2019-02-23T11:59:16.995Z,70.80
2019-02-23T12:01:46.568Z,71.80
2019-02-23T12:04:15.854Z,72.10
2019-02-23T12:06:45.175Z,70.70
2019-02-23T12:09:14.767Z,70.40
2019-02-23T12:11:44.314Z,68.20
2019-02-23T12:14:13.612Z,68.20
2019-02-23T12:16:43.190Z,66.70
2019-02-23T12:19:12.743Z,67.00
2019-02-23T12:21:42.063Z,67.10
2019-02-23T12:24:11.517Z,66.80
2019-02-23T12:26:41.101Z,64.80
2019-02-23T12:29:10.383Z,62.10
2019-02-23T12:31:40.007Z,60.10
2019-02-23T12:34:09.371Z,60.70
2019-02-23T12:36:38.671Z,61.00
2019-02-23T12:39:08.007Z,61.20
2019-02-23T12:41:37.583Z,62.60
2019-02-23T12:44:06.907Z,62.30
2019-02-23T12:46:36.504Z,60.90
2019-02-23T12:49:06.073Z,60.40
2019-02-23T12:51:35.444Z,59.30
2019-02-23T12:54:05.126Z,59.00
2019-02-23T12:56:45.198Z,57.60
2019-02-23T12:59:26.003Z,58.50
2019-02-23T13:01:55.460Z,59.50
2019-02-23T13:04:24.771Z,58.30
2019-02-23T13:06:54.083Z,56.20
2019-02-23T13:09:28.739Z,55.50
2019-02-23T13:12:08.450Z,55.70
2019-02-23T13:15:08.145Z,55.00
2019-02-23T13:18:23.300Z,53.50
2019-02-23T13:21:26.330Z,54.10
2019-02-23T13:24:45.866Z,55.20
2019-02-23T13:27:45.190Z,55.30
2019-02-23T13:30:48.294Z,55.30
2019-02-23T13:33:37.270Z,54.90
2019-02-23T13:36:24.595Z,54.70
2019-02-23T13:39:13.112Z,54.50
2019-02-23T13:42:19.283Z,54.80
2019-02-23T13:45:12.045Z,55.90
2019-02-23T13:48:14.380Z,51.20
2019-02-23T13:50:54.757Z,50.50
2019-02-23T13:54:38.349Z,49.50
2019-02-23T13:57:27.029Z,50.70
2019-02-23T14:00:28.861Z,51.90
2019-02-23T14:03:36.641Z,52.20
2019-02-23T14:06:29.251Z,52.00
2019-02-23T14:09:47.503Z,52.40
2019-02-23T14:13:04.309Z,52.10
2019-02-23T14:16:09.356Z,52.10
2019-02-23T14:19:00.964Z,52.10
2019-02-23T14:22:01.145Z,50.50
2019-02-23T14:24:58.875Z,50.30
2019-02-23T14:28:00.035Z,49.70
2019-02-23T14:30:57.287Z,49.80
2019-02-23T14:34:08.758Z,49.40
2019-02-23T14:37:10.304Z,48.40
2019-02-23T14:40:07.558Z,48.80
2019-02-23T14:43:41.124Z,49.20
2019-02-23T14:47:08.929Z,50.00
2019-02-23T14:50:31.082Z,50.30
2019-02-23T14:54:05.312Z,52.10
2019-02-23T14:57:16.127Z,52.00
2019-02-23T15:00:08.367Z,50.80
2019-02-23T15:03:10.064Z,49.80
2019-02-23T15:06:07.777Z,49.60
2019-02-23T15:08:46.050Z,49.40
2019-02-23T15:11:47.119Z,49.50
2019-02-23T15:14:52.300Z,52.00
2019-02-23T15:17:58.359Z,49.60
2019-02-23T15:21:02.111Z,50.30
2019-02-23T15:23:44.043Z,50.20
2019-02-23T15:26:38.703Z,50.80
2019-02-23T15:29:32.345Z,51.00
2019-02-23T15:32:52.092Z,51.70
2019-02-23T15:35:58.541Z,51.40
2019-02-23T15:38:53.074Z,52.60
2019-02-23T15:42:04.642Z,53.30
2019-02-23T15:45:27.122Z,54.30
2019-02-23T15:48:29.251Z,53.80
2019-02-23T15:51:00.017Z,54.50
2019-02-23T15:53:29.655Z,55.00
2019-02-23T15:55:58.953Z,55.60
2019-02-23T15:58:28.278Z,58.20
2019-02-23T16:00:57.678Z,56.20
2019-02-23T16:03:27.055Z,56.30
2019-02-23T16:05:56.679Z,56.60
2019-02-23T16:08:25.971Z,56.30
2019-02-23T16:10:55.620Z,56.30
2019-02-23T16:13:24.937Z,56.40
2019-02-23T16:15:54.209Z,56.10
2019-02-23T16:18:23.495Z,56.60
2019-02-23T16:20:52.832Z,56.40
2019-02-23T16:23:34.701Z,56.50
2019-02-23T16:25:53.629Z,57.10
2019-02-23T16:28:22.943Z,57.40
2019-02-23T16:30:52.507Z,58.30
2019-02-23T16:33:22.131Z,58.70
2019-02-23T16:35:51.721Z,59.50
2019-02-23T16:38:21.044Z,59.80
2019-02-23T16:40:50.509Z,60.70
2019-02-23T16:43:20.244Z,60.90
2019-02-23T16:45:49.887Z,61.70
2019-02-23T16:48:19.295Z,62.50
2019-02-23T16:50:48.679Z,64.70
2019-02-23T16:53:18.257Z,64.10
2019-02-23T16:55:50.896Z,64.80
2019-02-23T16:58:19.222Z,65.90
2019-02-23T17:00:48.876Z,66.80
2019-02-23T17:03:18.450Z,67.60
2019-02-23T17:05:48.207Z,69.10
2019-02-23T17:08:17.494Z,69.20
2019-02-23T17:10:46.792Z,69.90
2019-02-23T17:13:16.485Z,70.70
2019-02-23T17:15:46.048Z,70.90
2019-02-23T17:18:15.379Z,71.60
2019-02-23T17:20:45.019Z,72.40
2019-02-23T17:23:14.567Z,73.40
2019-02-23T17:25:43.861Z,74.20
2019-02-23T17:28:44.489Z,74.80
2019-02-23T17:31:27.423Z,75.80
2019-02-23T17:34:50.375Z,76.50
2019-02-23T17:38:16.327Z,78.00
2019-02-23T17:40:44.642Z,77.30
2019-02-23T17:43:14.168Z,77.70
2019-02-23T17:45:43.496Z,78.50
2019-02-23T17:48:12.810Z,78.50
2019-02-23T17:50:42.496Z,78.70
2019-02-23T17:53:19.707Z,79.20
2019-02-23T17:55:49.405Z,79.20
2019-02-23T17:58:18.950Z,79.40
2019-02-23T18:00:48.292Z,79.90
2019-02-23T18:03:17.570Z,79.80
2019-02-23T18:05:47.204Z,79.70
2019-02-23T18:08:16.798Z,80.10
2019-02-23T18:10:49.787Z,81.10
2019-02-23T18:13:19.175Z,80.70
2019-02-23T18:15:48.791Z,81.40
2019-02-23T18:18:18.338Z,81.70
2019-02-23T18:20:48.301Z,81.80
2019-02-23T18:23:26.298Z,82.30
2019-02-23T18:26:02.153Z,82.50
2019-02-23T18:28:31.609Z,82.60
2019-02-23T18:31:01.144Z,82.90
2019-02-23T18:33:30.675Z,83.10
2019-02-23T18:38:35.564Z,83.80
2019-02-23T18:41:04.862Z,83.90
2019-02-23T18:43:34.511Z,84.30
2019-02-23T18:46:03.879Z,84.10
2019-02-23T18:48:33.186Z,84.80
2019-02-23T18:51:02.489Z,85.00
2019-02-23T18:53:32.046Z,85.00
2019-02-23T18:56:01.347Z,84.90
2019-02-23T18:58:30.656Z,84.70
2019-02-23T19:01:00.183Z,84.70
2019-02-23T19:03:29.740Z,84.70
2019-02-23T19:05:59.328Z,84.70
2019-02-23T19:08:28.605Z,84.60
2019-02-23T19:10:58.201Z,84.80
2019-02-23T19:13:27.512Z,85.20
2019-02-23T19:15:57.069Z,84.70
2019-02-23T19:18:26.620Z,85.20
2019-02-23T19:20:56.145Z,85.10
2019-02-23T19:23:25.691Z,85.00
2019-02-23T19:25:54.987Z,84.60
2019-02-23T19:28:25.229Z,84.70
2019-02-23T19:30:54.598Z,84.00
2019-02-23T19:33:23.889Z,83.80
2019-02-23T19:35:59.251Z,83.50
2019-02-23T19:38:28.639Z,83.10
2019-02-23T19:40:57.934Z,82.80
2019-02-23T19:43:27.238Z,83.00
2019-02-23T19:45:56.772Z,82.90
2019-02-23T19:48:26.380Z,83.00
2019-02-23T19:50:59.509Z,82.80
2019-02-23T19:53:28.796Z,82.90
2019-02-23T19:55:58.147Z,83.00
2019-02-23T19:58:27.504Z,83.20
2019-02-23T20:00:56.799Z,83.70
2019-02-23T20:03:26.446Z,83.70
2019-02-23T20:05:56.027Z,83.90
2019-02-23T20:08:25.664Z,83.90
2019-02-23T20:10:54.975Z,83.80
2019-02-23T20:13:24.375Z,83.90
2019-02-23T20:15:54.288Z,84.00
2019-02-23T20:18:23.563Z,83.80
2019-02-23T20:20:53.133Z,83.60
2019-02-23T20:23:22.430Z,84.10
2019-02-23T20:25:51.993Z,84.20
2019-02-23T20:28:21.323Z,84.20
2019-02-23T20:30:50.621Z,84.20
2019-02-23T20:33:20.252Z,84.40
2019-02-23T20:35:49.582Z,84.90
2019-02-23T20:38:19.019Z,84.30
2019-02-23T20:40:48.579Z,85.00
2019-02-23T20:43:18.198Z,84.90
2019-02-23T20:45:47.494Z,85.20
2019-02-23T20:48:17.420Z,85.40
2019-02-23T20:50:46.998Z,85.80
2019-02-23T20:53:16.401Z,85.80
2019-02-23T20:55:46.583Z,85.50
2019-02-23T20:58:15.908Z,85.50
2019-02-23T21:00:45.347Z,85.40
2019-02-23T21:03:14.618Z,85.30
2019-02-23T21:05:44.018Z,85.40
2019-02-23T21:08:13.651Z,85.50
2019-02-23T21:10:43.096Z,85.40
2019-02-23T21:13:12.690Z,85.20
2019-02-23T21:15:42.130Z,85.00
2019-02-23T21:18:11.490Z,84.80
2019-02-23T21:20:40.800Z,84.90
2019-02-23T21:23:10.347Z,85.20
2019-02-23T21:25:39.743Z,85.90
2019-02-23T21:28:09.338Z,86.30
2019-02-23T21:30:39.135Z,86.50
2019-02-23T21:33:08.671Z,86.20
2019-02-23T21:35:38.135Z,86.70
2019-02-23T21:38:07.506Z,86.80
2019-02-23T21:40:37.073Z,86.80
2019-02-23T21:43:06.388Z,86.50
2019-02-23T21:45:35.689Z,86.20
2019-02-23T21:48:05.263Z,86.30
2019-02-23T21:50:34.887Z,86.10
2019-02-23T21:53:04.943Z,86.00
2019-02-23T21:55:34.723Z,86.00
2019-02-23T21:58:04.032Z,85.90
2019-02-23T22:00:33.494Z,85.80
2019-02-23T22:03:02.786Z,86.00
2019-02-23T22:05:32.160Z,85.90
2019-02-23T22:08:02.384Z,86.00
2019-02-23T22:10:31.939Z,86.10
2019-02-23T22:13:01.575Z,85.70
2019-02-23T22:15:30.981Z,86.10
2019-02-23T22:18:00.260Z,86.30
2019-02-23T22:20:29.836Z,86.10
2019-02-23T22:22:59.132Z,86.10
2019-02-23T22:25:28.831Z,86.30
2019-02-23T22:27:58.440Z,86.40
2019-02-23T22:30:28.021Z,86.80
2019-02-23T22:32:57.645Z,86.60
2019-02-23T22:35:26.937Z,86.90
2019-02-23T22:37:56.313Z,86.90
2019-02-23T22:40:25.811Z,86.40
2019-02-23T22:42:55.473Z,86.90
2019-02-23T22:45:25.064Z,86.50
2019-02-23T22:47:54.932Z,86.30
2019-02-23T22:50:24.268Z,86.70
2019-02-23T22:52:53.886Z,86.70
2019-02-23T22:55:23.472Z,87.20
2019-02-23T22:57:52.778Z,87.10
2019-02-23T23:00:26.034Z,87.10
2019-02-23T23:02:55.361Z,87.50
2019-02-23T23:05:24.963Z,87.30
2019-02-23T23:07:55.392Z,87.70
2019-02-23T23:10:25.076Z,87.60
2019-02-23T23:12:54.651Z,87.60
2019-02-23T23:15:23.984Z,87.50
2019-02-23T23:17:54.104Z,88.50
2019-02-23T23:20:23.407Z,87.80
2019-02-23T23:22:52.723Z,88.40
2019-02-23T23:25:22.039Z,88.30
2019-02-23T23:27:51.595Z,88.20
2019-02-23T23:30:20.935Z,88.00
2019-02-23T23:32:50.691Z,87.90
2019-02-23T23:35:19.976Z,87.40
2019-02-23T23:37:49.278Z,87.80
2019-02-23T23:40:18.848Z,88.20
2019-02-23T23:42:48.143Z,88.10
2019-02-23T23:45:17.518Z,87.90
2019-02-23T23:47:46.814Z,87.60
2019-02-23T23:50:16.198Z,87.50
2019-02-23T23:52:45.518Z,87.20
2019-02-23T23:55:15.055Z,87.40
2019-02-23T23:57:44.422Z,86.70
